sensor_id;sensor_type;location;lat;lon;timestamp;temperature;humidity
11043;DHT22;5574;48.786;10.120;2022-09-16T00:00:15;14.10;99.90
11043;DHT22;5574;48.786;10.120;2022-09-16T00:02:43;14.10;99.90
11043;DHT22;5574;48.786;10.120;2022-09-16T00:05:10;14.10;99.90
11043;DHT22;5574;48.786;10.120;2022-09-16T00:07:36;14.10;99.90
11043;DHT22;5574;48.786;10.120;2022-09-16T00:10:04;14.20;99.90
11043;DHT22;5574;48.786;10.120;2022-09-16T00:12:31;14.20;99.90
11043;DHT22;5574;48.786;10.120;2022-09-16T00:14:58;14.10;99.90
11043;DHT22;5574;48.786;10.120;2022-09-16T00:17:25;14.10;99.90
11043;DHT22;5574;48.786;10.120;2022-09-16T00:19:53;14.10;99.90
11043;DHT22;5574;48.786;10.120;2022-09-16T00:22:19;14.10;99.90
11043;DHT22;5574;48.786;10.120;2022-09-16T00:24:47;14.10;99.90
11043;DHT22;5574;48.786;10.120;2022-09-16T00:27:14;14.10;99.90
11043;DHT22;5574;48.786;10.120;2022-09-16T00:29:41;14.00;99.90
11043;DHT22;5574;48.786;10.120;2022-09-16T00:32:08;14.10;99.90
11043;DHT22;5574;48.786;10.120;2022-09-16T00:34:34;14.00;99.90
11043;DHT22;5574;48.786;10.120;2022-09-16T00:37:03;14.00;99.90
11043;DHT22;5574;48.786;10.120;2022-09-16T00:39:32;14.10;99.90
11043;DHT22;5574;48.786;10.120;2022-09-16T00:41:59;14.10;99.90
11043;DHT22;5574;48.786;10.120;2022-09-16T00:44:53;14.00;99.90
11043;DHT22;5574;48.786;10.120;2022-09-16T00:47:24;14.00;99.90
11043;DHT22;5574;48.786;10.120;2022-09-16T00:49:55;14.00;99.90
11043;DHT22;5574;48.786;10.120;2022-09-16T00:52:26;14.00;99.90
11043;DHT22;5574;48.786;10.120;2022-09-16T00:54:53;14.00;99.90
11043;DHT22;5574;48.786;10.120;2022-09-16T00:57:19;14.00;99.90
11043;DHT22;5574;48.786;10.120;2022-09-16T00:59:50;14.00;99.90
11043;DHT22;5574;48.786;10.120;2022-09-16T01:02:19;14.00;99.90
11043;DHT22;5574;48.786;10.120;2022-09-16T01:04:50;14.00;99.90
11043;DHT22;5574;48.786;10.120;2022-09-16T01:07:20;14.00;99.90
11043;DHT22;5574;48.786;10.120;2022-09-16T01:09:52;14.00;99.90
11043;DHT22;5574;48.786;10.120;2022-09-16T01:12:20;14.00;99.90
11043;DHT22;5574;48.786;10.120;2022-09-16T01:14:47;14.00;99.90
11043;DHT22;5574;48.786;10.120;2022-09-16T01:17:26;14.00;99.90
11043;DHT22;5574;48.786;10.120;2022-09-16T01:20:16;14.00;99.90
11043;DHT22;5574;48.786;10.120;2022-09-16T01:23:08;14.00;99.90
11043;DHT22;5574;48.786;10.120;2022-09-16T01:25:46;14.00;99.90
11043;DHT22;5574;48.786;10.120;2022-09-16T01:28:33;14.00;99.90
11043;DHT22;5574;48.786;10.120;2022-09-16T01:31:11;13.90;99.90
11043;DHT22;5574;48.786;10.120;2022-09-16T01:33:49;13.90;99.90
11043;DHT22;5574;48.786;10.120;2022-09-16T01:36:29;13.90;99.90
11043;DHT22;5574;48.786;10.120;2022-09-16T01:39:06;13.90;99.90
11043;DHT22;5574;48.786;10.120;2022-09-16T01:41:45;13.90;99.90
11043;DHT22;5574;48.786;10.120;2022-09-16T01:44:20;13.80;99.90
11043;DHT22;5574;48.786;10.120;2022-09-16T01:46:58;13.80;99.90
11043;DHT22;5574;48.786;10.120;2022-09-16T01:49:37;13.80;99.90
11043;DHT22;5574;48.786;10.120;2022-09-16T01:52:16;13.80;99.90
11043;DHT22;5574;48.786;10.120;2022-09-16T01:54:48;13.80;99.90
11043;DHT22;5574;48.786;10.120;2022-09-16T01:57:21;13.80;99.90
11043;DHT22;5574;48.786;10.120;2022-09-16T01:59:53;13.80;99.90
11043;DHT22;5574;48.786;10.120;2022-09-16T02:02:26;13.90;99.90
11043;DHT22;5574;48.786;10.120;2022-09-16T02:04:56;13.90;99.90
11043;DHT22;5574;48.786;10.120;2022-09-16T02:07:28;13.90;99.90
11043;DHT22;5574;48.786;10.120;2022-09-16T02:09:59;13.80;99.90
11043;DHT22;5574;48.786;10.120;2022-09-16T02:12:33;13.80;99.90
11043;DHT22;5574;48.786;10.120;2022-09-16T02:15:04;13.80;99.90
11043;DHT22;5574;48.786;10.120;2022-09-16T02:17:39;13.80;99.90
11043;DHT22;5574;48.786;10.120;2022-09-16T02:20:08;13.80;99.90
11043;DHT22;5574;48.786;10.120;2022-09-16T02:22:38;13.80;99.90
11043;DHT22;5574;48.786;10.120;2022-09-16T02:25:06;13.70;99.90
11043;DHT22;5574;48.786;10.120;2022-09-16T02:27:34;13.70;99.90
11043;DHT22;5574;48.786;10.120;2022-09-16T02:30:05;13.70;99.90
11043;DHT22;5574;48.786;10.120;2022-09-16T02:32:36;13.70;99.90
11043;DHT22;5574;48.786;10.120;2022-09-16T02:35:04;13.70;99.90
11043;DHT22;5574;48.786;10.120;2022-09-16T02:37:38;13.70;99.90
11043;DHT22;5574;48.786;10.120;2022-09-16T02:40:10;13.80;99.90
11043;DHT22;5574;48.786;10.120;2022-09-16T02:42:38;13.80;99.90
11043;DHT22;5574;48.786;10.120;2022-09-16T02:45:05;13.70;99.90
11043;DHT22;5574;48.786;10.120;2022-09-16T02:47:41;13.80;99.90
11043;DHT22;5574;48.786;10.120;2022-09-16T02:50:14;13.80;99.90
11043;DHT22;5574;48.786;10.120;2022-09-16T02:52:45;13.80;99.90
11043;DHT22;5574;48.786;10.120;2022-09-16T02:55:21;13.80;99.90
11043;DHT22;5574;48.786;10.120;2022-09-16T02:57:48;13.80;99.90
11043;DHT22;5574;48.786;10.120;2022-09-16T03:00:15;13.80;99.90
11043;DHT22;5574;48.786;10.120;2022-09-16T03:02:44;13.90;99.90
11043;DHT22;5574;48.786;10.120;2022-09-16T03:05:10;13.90;99.90
11043;DHT22;5574;48.786;10.120;2022-09-16T03:07:38;13.90;99.90
11043;DHT22;5574;48.786;10.120;2022-09-16T03:10:08;14.00;99.90
11043;DHT22;5574;48.786;10.120;2022-09-16T03:12:45;14.00;99.90
11043;DHT22;5574;48.786;10.120;2022-09-16T03:15:26;14.10;99.90
11043;DHT22;5574;48.786;10.120;2022-09-16T03:18:10;14.10;99.90
11043;DHT22;5574;48.786;10.120;2022-09-16T03:20:43;14.10;99.90
11043;DHT22;5574;48.786;10.120;2022-09-16T03:23:18;14.20;99.90
11043;DHT22;5574;48.786;10.120;2022-09-16T03:25:52;14.10;99.90
11043;DHT22;5574;48.786;10.120;2022-09-16T03:28:25;14.20;99.90
11043;DHT22;5574;48.786;10.120;2022-09-16T03:30:59;14.20;99.90
11043;DHT22;5574;48.786;10.120;2022-09-16T03:33:33;14.20;99.90
11043;DHT22;5574;48.786;10.120;2022-09-16T03:36:03;14.20;99.90
11043;DHT22;5574;48.786;10.120;2022-09-16T03:38:32;14.20;99.90
11043;DHT22;5574;48.786;10.120;2022-09-16T03:41:00;14.20;99.90
11043;DHT22;5574;48.786;10.120;2022-09-16T03:43:28;14.20;99.90
11043;DHT22;5574;48.786;10.120;2022-09-16T03:45:54;14.20;99.90
11043;DHT22;5574;48.786;10.120;2022-09-16T03:48:21;14.20;99.90
11043;DHT22;5574;48.786;10.120;2022-09-16T03:50:49;14.20;99.90
11043;DHT22;5574;48.786;10.120;2022-09-16T03:53:16;14.20;99.90
11043;DHT22;5574;48.786;10.120;2022-09-16T03:55:43;14.20;99.90
11043;DHT22;5574;48.786;10.120;2022-09-16T03:58:09;14.20;99.90
11043;DHT22;5574;48.786;10.120;2022-09-16T04:00:36;14.20;99.90
11043;DHT22;5574;48.786;10.120;2022-09-16T04:03:03;14.20;99.90
11043;DHT22;5574;48.786;10.120;2022-09-16T04:05:29;14.20;99.90
11043;DHT22;5574;48.786;10.120;2022-09-16T04:07:57;14.20;99.90
11043;DHT22;5574;48.786;10.120;2022-09-16T04:10:24;14.20;99.90
11043;DHT22;5574;48.786;10.120;2022-09-16T04:12:55;14.20;99.90
11043;DHT22;5574;48.786;10.120;2022-09-16T04:15:22;14.10;99.90
11043;DHT22;5574;48.786;10.120;2022-09-16T04:17:48;14.10;99.90
11043;DHT22;5574;48.786;10.120;2022-09-16T04:20:15;14.10;99.90
11043;DHT22;5574;48.786;10.120;2022-09-16T04:22:42;14.10;99.90
11043;DHT22;5574;48.786;10.120;2022-09-16T04:25:10;14.10;99.90
11043;DHT22;5574;48.786;10.120;2022-09-16T04:27:37;14.00;99.90
11043;DHT22;5574;48.786;10.120;2022-09-16T04:30:04;14.00;99.90
11043;DHT22;5574;48.786;10.120;2022-09-16T04:32:31;14.00;99.90
11043;DHT22;5574;48.786;10.120;2022-09-16T04:34:58;14.00;99.90
11043;DHT22;5574;48.786;10.120;2022-09-16T04:37:24;13.90;99.90
11043;DHT22;5574;48.786;10.120;2022-09-16T04:39:51;13.90;99.90
11043;DHT22;5574;48.786;10.120;2022-09-16T04:42:19;13.90;99.90
11043;DHT22;5574;48.786;10.120;2022-09-16T04:44:46;13.90;99.90
11043;DHT22;5574;48.786;10.120;2022-09-16T04:47:12;13.80;99.90
11043;DHT22;5574;48.786;10.120;2022-09-16T04:49:39;13.80;99.90
11043;DHT22;5574;48.786;10.120;2022-09-16T04:52:06;13.70;99.90
11043;DHT22;5574;48.786;10.120;2022-09-16T04:54:32;13.70;99.90
11043;DHT22;5574;48.786;10.120;2022-09-16T04:56:59;13.70;99.90
11043;DHT22;5574;48.786;10.120;2022-09-16T04:59:27;13.70;99.90
11043;DHT22;5574;48.786;10.120;2022-09-16T05:01:54;13.70;99.90
11043;DHT22;5574;48.786;10.120;2022-09-16T05:04:21;13.70;99.90
11043;DHT22;5574;48.786;10.120;2022-09-16T05:06:48;13.70;99.90
11043;DHT22;5574;48.786;10.120;2022-09-16T05:09:14;13.60;99.90
11043;DHT22;5574;48.786;10.120;2022-09-16T05:11:41;13.70;99.90
11043;DHT22;5574;48.786;10.120;2022-09-16T05:14:12;13.60;99.90
11043;DHT22;5574;48.786;10.120;2022-09-16T05:16:41;13.60;99.90
11043;DHT22;5574;48.786;10.120;2022-09-16T05:19:09;13.70;99.90
11043;DHT22;5574;48.786;10.120;2022-09-16T05:21:37;13.60;99.90
11043;DHT22;5574;48.786;10.120;2022-09-16T05:24:06;13.70;99.90
11043;DHT22;5574;48.786;10.120;2022-09-16T05:26:34;13.70;99.90
11043;DHT22;5574;48.786;10.120;2022-09-16T05:29:03;13.70;99.90
11043;DHT22;5574;48.786;10.120;2022-09-16T05:31:31;13.60;99.90
11043;DHT22;5574;48.786;10.120;2022-09-16T05:34:01;13.70;99.90
11043;DHT22;5574;48.786;10.120;2022-09-16T05:36:30;13.60;99.90
11043;DHT22;5574;48.786;10.120;2022-09-16T05:38:57;13.70;99.90
11043;DHT22;5574;48.786;10.120;2022-09-16T05:41:24;13.70;99.90
11043;DHT22;5574;48.786;10.120;2022-09-16T05:43:52;13.70;99.90
11043;DHT22;5574;48.786;10.120;2022-09-16T05:46:22;13.70;99.90
11043;DHT22;5574;48.786;10.120;2022-09-16T05:48:49;13.70;99.90
11043;DHT22;5574;48.786;10.120;2022-09-16T05:51:20;13.80;99.90
11043;DHT22;5574;48.786;10.120;2022-09-16T05:53:49;13.70;99.90
11043;DHT22;5574;48.786;10.120;2022-09-16T05:56:17;13.80;99.90
11043;DHT22;5574;48.786;10.120;2022-09-16T05:58:44;13.80;99.90
11043;DHT22;5574;48.786;10.120;2022-09-16T06:01:13;13.80;99.90
11043;DHT22;5574;48.786;10.120;2022-09-16T06:03:42;13.80;99.90
11043;DHT22;5574;48.786;10.120;2022-09-16T06:06:12;13.80;99.90
11043;DHT22;5574;48.786;10.120;2022-09-16T06:08:40;13.90;99.90
11043;DHT22;5574;48.786;10.120;2022-09-16T06:11:09;13.90;99.90
11043;DHT22;5574;48.786;10.120;2022-09-16T06:13:36;13.90;99.90
11043;DHT22;5574;48.786;10.120;2022-09-16T06:16:04;13.90;99.90
11043;DHT22;5574;48.786;10.120;2022-09-16T06:18:32;13.90;99.90
11043;DHT22;5574;48.786;10.120;2022-09-16T06:21:02;14.00;99.90
11043;DHT22;5574;48.786;10.120;2022-09-16T06:23:29;14.00;99.90
11043;DHT22;5574;48.786;10.120;2022-09-16T06:26:02;14.00;99.90
11043;DHT22;5574;48.786;10.120;2022-09-16T06:28:29;13.90;99.90
11043;DHT22;5574;48.786;10.120;2022-09-16T06:31:04;13.90;99.90
11043;DHT22;5574;48.786;10.120;2022-09-16T06:33:31;13.90;99.90
11043;DHT22;5574;48.786;10.120;2022-09-16T06:36:02;13.90;99.90
11043;DHT22;5574;48.786;10.120;2022-09-16T06:38:29;14.00;99.90
11043;DHT22;5574;48.786;10.120;2022-09-16T06:40:57;14.00;99.90
11043;DHT22;5574;48.786;10.120;2022-09-16T06:43:26;14.00;99.90
11043;DHT22;5574;48.786;10.120;2022-09-16T06:45:56;14.10;99.90
11043;DHT22;5574;48.786;10.120;2022-09-16T06:48:23;14.10;99.90
11043;DHT22;5574;48.786;10.120;2022-09-16T06:50:56;14.20;99.90
11043;DHT22;5574;48.786;10.120;2022-09-16T06:53:23;14.30;99.90
11043;DHT22;5574;48.786;10.120;2022-09-16T06:55:50;14.30;99.90
11043;DHT22;5574;48.786;10.120;2022-09-16T06:58:17;14.30;99.90
11043;DHT22;5574;48.786;10.120;2022-09-16T07:00:45;14.30;99.90
11043;DHT22;5574;48.786;10.120;2022-09-16T07:03:12;14.30;99.90
11043;DHT22;5574;48.786;10.120;2022-09-16T07:05:38;14.20;99.90
11043;DHT22;5574;48.786;10.120;2022-09-16T07:08:05;14.30;99.90
11043;DHT22;5574;48.786;10.120;2022-09-16T07:10:32;14.20;99.90
11043;DHT22;5574;48.786;10.120;2022-09-16T07:12:58;14.20;99.90
11043;DHT22;5574;48.786;10.120;2022-09-16T07:15:25;14.20;99.90
11043;DHT22;5574;48.786;10.120;2022-09-16T07:17:53;14.10;99.90
11043;DHT22;5574;48.786;10.120;2022-09-16T07:20:20;14.10;99.90
11043;DHT22;5574;48.786;10.120;2022-09-16T07:22:47;14.10;99.90
11043;DHT22;5574;48.786;10.120;2022-09-16T07:25:18;14.00;99.90
11043;DHT22;5574;48.786;10.120;2022-09-16T07:27:45;13.90;99.90
11043;DHT22;5574;48.786;10.120;2022-09-16T07:30:12;14.00;99.90
11043;DHT22;5574;48.786;10.120;2022-09-16T07:32:39;13.90;99.90
11043;DHT22;5574;48.786;10.120;2022-09-16T07:35:07;13.90;99.90
11043;DHT22;5574;48.786;10.120;2022-09-16T07:37:34;13.80;99.90
11043;DHT22;5574;48.786;10.120;2022-09-16T07:40:01;13.80;99.90
11043;DHT22;5574;48.786;10.120;2022-09-16T07:42:28;13.70;99.90
11043;DHT22;5574;48.786;10.120;2022-09-16T07:44:55;13.70;99.90
11043;DHT22;5574;48.786;10.120;2022-09-16T07:47:22;13.70;99.90
11043;DHT22;5574;48.786;10.120;2022-09-16T07:49:48;13.70;99.90
11043;DHT22;5574;48.786;10.120;2022-09-16T07:52:21;13.70;99.90
11043;DHT22;5574;48.786;10.120;2022-09-16T07:54:50;13.70;99.90
11043;DHT22;5574;48.786;10.120;2022-09-16T07:57:17;13.70;99.90
11043;DHT22;5574;48.786;10.120;2022-09-16T07:59:43;13.70;99.90
11043;DHT22;5574;48.786;10.120;2022-09-16T08:02:10;13.70;99.90
11043;DHT22;5574;48.786;10.120;2022-09-16T08:04:37;13.60;99.90
11043;DHT22;5574;48.786;10.120;2022-09-16T08:07:04;13.60;99.90
11043;DHT22;5574;48.786;10.120;2022-09-16T08:09:32;13.60;99.90
11043;DHT22;5574;48.786;10.120;2022-09-16T08:12:01;13.60;99.90
11043;DHT22;5574;48.786;10.120;2022-09-16T08:14:29;13.60;99.90
11043;DHT22;5574;48.786;10.120;2022-09-16T08:16:56;13.50;99.90
11043;DHT22;5574;48.786;10.120;2022-09-16T08:19:22;13.50;99.90
11043;DHT22;5574;48.786;10.120;2022-09-16T08:21:50;13.50;99.90
11043;DHT22;5574;48.786;10.120;2022-09-16T08:24:16;13.40;99.90
11043;DHT22;5574;48.786;10.120;2022-09-16T08:26:45;13.40;99.90
11043;DHT22;5574;48.786;10.120;2022-09-16T08:29:11;13.30;99.90
11043;DHT22;5574;48.786;10.120;2022-09-16T08:31:38;13.40;99.90
11043;DHT22;5574;48.786;10.120;2022-09-16T08:34:05;13.30;99.90
11043;DHT22;5574;48.786;10.120;2022-09-16T08:36:32;13.30;99.90
11043;DHT22;5574;48.786;10.120;2022-09-16T08:38:59;13.30;99.90
11043;DHT22;5574;48.786;10.120;2022-09-16T08:41:34;13.30;99.90
11043;DHT22;5574;48.786;10.120;2022-09-16T08:44:13;13.40;99.90
11043;DHT22;5574;48.786;10.120;2022-09-16T08:46:47;13.70;99.90
11043;DHT22;5574;48.786;10.120;2022-09-16T08:49:18;13.90;99.90
11043;DHT22;5574;48.786;10.120;2022-09-16T08:51:47;14.00;99.90
11043;DHT22;5574;48.786;10.120;2022-09-16T08:54:25;13.90;99.90
11043;DHT22;5574;48.786;10.120;2022-09-16T08:56:53;14.00;99.90
11043;DHT22;5574;48.786;10.120;2022-09-16T08:59:24;14.00;99.90
11043;DHT22;5574;48.786;10.120;2022-09-16T09:01:56;14.00;99.90
11043;DHT22;5574;48.786;10.120;2022-09-16T09:04:26;13.90;99.90
11043;DHT22;5574;48.786;10.120;2022-09-16T09:06:58;13.90;99.90
11043;DHT22;5574;48.786;10.120;2022-09-16T09:09:39;13.80;99.90
11043;DHT22;5574;48.786;10.120;2022-09-16T09:12:13;13.80;99.90
11043;DHT22;5574;48.786;10.120;2022-09-16T09:14:55;13.80;99.90
11043;DHT22;5574;48.786;10.120;2022-09-16T09:17:31;13.80;99.90
11043;DHT22;5574;48.786;10.120;2022-09-16T09:20:12;13.80;99.90
11043;DHT22;5574;48.786;10.120;2022-09-16T09:22:58;13.80;99.90
11043;DHT22;5574;48.786;10.120;2022-09-16T09:25:33;13.80;99.90
11043;DHT22;5574;48.786;10.120;2022-09-16T09:28:14;13.90;99.90
11043;DHT22;5574;48.786;10.120;2022-09-16T09:30:55;13.80;99.90
11043;DHT22;5574;48.786;10.120;2022-09-16T09:33:30;13.90;99.90
11043;DHT22;5574;48.786;10.120;2022-09-16T09:36:16;13.90;99.90
11043;DHT22;5574;48.786;10.120;2022-09-16T09:39:16;14.00;99.90
11043;DHT22;5574;48.786;10.120;2022-09-16T09:41:49;14.10;99.90
11043;DHT22;5574;48.786;10.120;2022-09-16T09:44:43;14.10;99.90
11043;DHT22;5574;48.786;10.120;2022-09-16T09:47:18;14.20;99.90
11043;DHT22;5574;48.786;10.120;2022-09-16T09:49:47;14.20;99.90
11043;DHT22;5574;48.786;10.120;2022-09-16T09:52:18;14.10;99.90
11043;DHT22;5574;48.786;10.120;2022-09-16T09:54:48;14.10;99.90
11043;DHT22;5574;48.786;10.120;2022-09-16T09:57:21;14.10;99.90
11043;DHT22;5574;48.786;10.120;2022-09-16T09:59:56;14.10;99.90
11043;DHT22;5574;48.786;10.120;2022-09-16T10:02:25;14.00;99.90
11043;DHT22;5574;48.786;10.120;2022-09-16T10:04:52;14.00;99.90
11043;DHT22;5574;48.786;10.120;2022-09-16T10:07:21;14.00;99.90
11043;DHT22;5574;48.786;10.120;2022-09-16T10:09:52;14.00;99.90
11043;DHT22;5574;48.786;10.120;2022-09-16T10:12:31;14.00;99.90
11043;DHT22;5574;48.786;10.120;2022-09-16T10:14:58;14.00;99.90
11043;DHT22;5574;48.786;10.120;2022-09-16T10:17:29;14.10;99.90
11043;DHT22;5574;48.786;10.120;2022-09-16T10:19:59;14.10;99.90
11043;DHT22;5574;48.786;10.120;2022-09-16T10:22:27;14.10;99.90
11043;DHT22;5574;48.786;10.120;2022-09-16T10:24:56;14.10;99.90
11043;DHT22;5574;48.786;10.120;2022-09-16T10:27:25;14.10;99.90
11043;DHT22;5574;48.786;10.120;2022-09-16T10:30:13;14.00;99.90
11043;DHT22;5574;48.786;10.120;2022-09-16T10:32:48;14.00;99.90
11043;DHT22;5574;48.786;10.120;2022-09-16T10:35:19;14.00;99.90
11043;DHT22;5574;48.786;10.120;2022-09-16T10:37:54;14.00;99.90
11043;DHT22;5574;48.786;10.120;2022-09-16T10:40:22;14.00;99.90
11043;DHT22;5574;48.786;10.120;2022-09-16T10:42:50;14.10;99.90
11043;DHT22;5574;48.786;10.120;2022-09-16T10:45:24;14.10;99.90
11043;DHT22;5574;48.786;10.120;2022-09-16T10:47:55;14.20;99.90
11043;DHT22;5574;48.786;10.120;2022-09-16T10:50:24;14.10;99.90
11043;DHT22;5574;48.786;10.120;2022-09-16T10:52:52;14.10;99.90
11043;DHT22;5574;48.786;10.120;2022-09-16T10:55:25;14.10;99.90
11043;DHT22;5574;48.786;10.120;2022-09-16T10:57:53;14.20;99.90
11043;DHT22;5574;48.786;10.120;2022-09-16T11:00:36;14.20;99.90
11043;DHT22;5574;48.786;10.120;2022-09-16T11:03:32;14.20;99.90
11043;DHT22;5574;48.786;10.120;2022-09-16T11:06:12;14.30;99.90
11043;DHT22;5574;48.786;10.120;2022-09-16T11:08:51;14.30;99.90
11043;DHT22;5574;48.786;10.120;2022-09-16T11:11:31;14.30;99.90
11043;DHT22;5574;48.786;10.120;2022-09-16T11:14:09;14.30;99.90
11043;DHT22;5574;48.786;10.120;2022-09-16T11:19:48;14.40;99.90
11043;DHT22;5574;48.786;10.120;2022-09-16T11:22:25;14.40;99.90
11043;DHT22;5574;48.786;10.120;2022-09-16T11:25:20;14.30;99.90
11043;DHT22;5574;48.786;10.120;2022-09-16T11:27:56;14.30;99.90
11043;DHT22;5574;48.786;10.120;2022-09-16T11:30:27;14.30;99.90
11043;DHT22;5574;48.786;10.120;2022-09-16T11:33:09;14.40;99.90
11043;DHT22;5574;48.786;10.120;2022-09-16T11:36:04;14.50;99.90
11043;DHT22;5574;48.786;10.120;2022-09-16T11:38:38;14.50;99.90
11043;DHT22;5574;48.786;10.120;2022-09-16T11:41:13;14.50;99.90
11043;DHT22;5574;48.786;10.120;2022-09-16T11:43:51;14.60;99.90
11043;DHT22;5574;48.786;10.120;2022-09-16T11:46:24;14.60;99.90
11043;DHT22;5574;48.786;10.120;2022-09-16T11:49:03;14.60;99.90
11043;DHT22;5574;48.786;10.120;2022-09-16T11:51:53;14.70;99.90
11043;DHT22;5574;48.786;10.120;2022-09-16T11:54:36;14.70;99.90
11043;DHT22;5574;48.786;10.120;2022-09-16T11:57:11;14.60;99.90
11043;DHT22;5574;48.786;10.120;2022-09-16T11:59:43;14.60;99.90
11043;DHT22;5574;48.786;10.120;2022-09-16T12:02:15;14.60;99.90
11043;DHT22;5574;48.786;10.120;2022-09-16T12:04:48;14.70;99.90
11043;DHT22;5574;48.786;10.120;2022-09-16T12:07:23;14.70;99.90
11043;DHT22;5574;48.786;10.120;2022-09-16T12:09:54;14.80;99.90
11043;DHT22;5574;48.786;10.120;2022-09-16T12:12:24;14.70;99.90
11043;DHT22;5574;48.786;10.120;2022-09-16T12:14:56;14.80;99.90
11043;DHT22;5574;48.786;10.120;2022-09-16T12:17:27;14.80;99.90
11043;DHT22;5574;48.786;10.120;2022-09-16T12:19:57;14.80;99.90
11043;DHT22;5574;48.786;10.120;2022-09-16T12:22:30;14.80;99.90
11043;DHT22;5574;48.786;10.120;2022-09-16T12:25:06;14.80;99.90
11043;DHT22;5574;48.786;10.120;2022-09-16T12:27:42;14.70;99.90
11043;DHT22;5574;48.786;10.120;2022-09-16T12:30:15;14.70;99.90
11043;DHT22;5574;48.786;10.120;2022-09-16T12:32:50;14.60;99.90
11043;DHT22;5574;48.786;10.120;2022-09-16T12:35:23;14.60;99.90
11043;DHT22;5574;48.786;10.120;2022-09-16T12:37:54;14.60;99.90
11043;DHT22;5574;48.786;10.120;2022-09-16T12:40:24;14.90;99.90
11043;DHT22;5574;48.786;10.120;2022-09-16T12:43:14;15.00;99.90
11043;DHT22;5574;48.786;10.120;2022-09-16T12:45:58;15.30;99.90
11043;DHT22;5574;48.786;10.120;2022-09-16T12:51:39;15.70;99.90
11043;DHT22;5574;48.786;10.120;2022-09-16T12:54:41;16.00;99.90
11043;DHT22;5574;48.786;10.120;2022-09-16T12:57:20;15.90;99.90
11043;DHT22;5574;48.786;10.120;2022-09-16T13:00:00;15.80;99.90
11043;DHT22;5574;48.786;10.120;2022-09-16T13:02:34;15.60;99.90
11043;DHT22;5574;48.786;10.120;2022-09-16T13:05:11;15.60;99.90
11043;DHT22;5574;48.786;10.120;2022-09-16T13:07:39;15.70;99.90
11043;DHT22;5574;48.786;10.120;2022-09-16T13:10:15;16.00;99.90
11043;DHT22;5574;48.786;10.120;2022-09-16T13:12:48;16.30;99.90
11043;DHT22;5574;48.786;10.120;2022-09-16T13:15:24;16.40;99.90
11043;DHT22;5574;48.786;10.120;2022-09-16T13:17:51;16.50;99.90
11043;DHT22;5574;48.786;10.120;2022-09-16T13:20:20;16.50;99.90
11043;DHT22;5574;48.786;10.120;2022-09-16T13:22:56;16.40;99.90
11043;DHT22;5574;48.786;10.120;2022-09-16T13:25:28;16.60;99.90
11043;DHT22;5574;48.786;10.120;2022-09-16T13:27:59;16.70;99.90
11043;DHT22;5574;48.786;10.120;2022-09-16T13:30:29;16.80;99.90
11043;DHT22;5574;48.786;10.120;2022-09-16T13:32:59;16.90;99.90
11043;DHT22;5574;48.786;10.120;2022-09-16T13:35:38;16.90;99.90
11043;DHT22;5574;48.786;10.120;2022-09-16T13:38:23;16.70;99.90
11043;DHT22;5574;48.786;10.120;2022-09-16T13:40:56;16.60;99.90
11043;DHT22;5574;48.786;10.120;2022-09-16T13:43:31;16.70;99.90
11043;DHT22;5574;48.786;10.120;2022-09-16T13:46:07;16.60;99.90
11043;DHT22;5574;48.786;10.120;2022-09-16T13:48:39;16.40;99.90
11043;DHT22;5574;48.786;10.120;2022-09-16T13:51:13;16.10;99.90
11043;DHT22;5574;48.786;10.120;2022-09-16T13:53:46;16.10;99.90
11043;DHT22;5574;48.786;10.120;2022-09-16T13:56:33;16.30;99.90
11043;DHT22;5574;48.786;10.120;2022-09-16T13:59:12;16.60;99.90
11043;DHT22;5574;48.786;10.120;2022-09-16T14:01:48;16.80;99.90
11043;DHT22;5574;48.786;10.120;2022-09-16T14:04:29;16.90;99.90
11043;DHT22;5574;48.786;10.120;2022-09-16T14:07:20;17.10;99.90
11043;DHT22;5574;48.786;10.120;2022-09-16T14:09:58;17.20;99.90
11043;DHT22;5574;48.786;10.120;2022-09-16T14:12:35;17.30;99.90
11043;DHT22;5574;48.786;10.120;2022-09-16T14:15:05;17.30;99.90
11043;DHT22;5574;48.786;10.120;2022-09-16T14:17:37;17.10;99.90
11043;DHT22;5574;48.786;10.120;2022-09-16T14:20:11;17.20;99.90
11043;DHT22;5574;48.786;10.120;2022-09-16T14:22:39;17.30;99.90
11043;DHT22;5574;48.786;10.120;2022-09-16T14:25:24;17.30;99.90
11043;DHT22;5574;48.786;10.120;2022-09-16T14:28:05;17.40;99.90
11043;DHT22;5574;48.786;10.120;2022-09-16T14:30:31;17.50;99.90
11043;DHT22;5574;48.786;10.120;2022-09-16T14:33:00;17.60;99.90
11043;DHT22;5574;48.786;10.120;2022-09-16T14:35:28;17.50;99.90
11043;DHT22;5574;48.786;10.120;2022-09-16T14:37:59;17.60;99.90
11043;DHT22;5574;48.786;10.120;2022-09-16T14:40:28;17.50;99.90
11043;DHT22;5574;48.786;10.120;2022-09-16T14:42:59;17.20;99.90
11043;DHT22;5574;48.786;10.120;2022-09-16T14:45:28;17.10;99.90
11043;DHT22;5574;48.786;10.120;2022-09-16T14:47:57;17.10;99.90
11043;DHT22;5574;48.786;10.120;2022-09-16T14:50:26;17.40;99.90
11043;DHT22;5574;48.786;10.120;2022-09-16T14:52:55;17.50;99.90
11043;DHT22;5574;48.786;10.120;2022-09-16T14:55:24;17.50;99.90
11043;DHT22;5574;48.786;10.120;2022-09-16T14:57:51;17.50;99.90
11043;DHT22;5574;48.786;10.120;2022-09-16T15:00:19;17.50;99.80
11043;DHT22;5574;48.786;10.120;2022-09-16T15:02:50;17.60;99.70
11043;DHT22;5574;48.786;10.120;2022-09-16T15:05:22;17.70;98.80
11043;DHT22;5574;48.786;10.120;2022-09-16T15:07:51;17.50;98.50
11043;DHT22;5574;48.786;10.120;2022-09-16T15:10:21;17.50;98.80
11043;DHT22;5574;48.786;10.120;2022-09-16T15:12:49;17.70;99.10
11043;DHT22;5574;48.786;10.120;2022-09-16T15:15:21;17.60;98.40
11043;DHT22;5574;48.786;10.120;2022-09-16T15:17:52;17.60;98.80
11043;DHT22;5574;48.786;10.120;2022-09-16T15:20:22;17.70;99.30
11043;DHT22;5574;48.786;10.120;2022-09-16T15:22:49;17.70;99.10
11043;DHT22;5574;48.786;10.120;2022-09-16T15:25:19;17.70;99.00
11043;DHT22;5574;48.786;10.120;2022-09-16T15:27:46;17.70;98.80
11043;DHT22;5574;48.786;10.120;2022-09-16T15:30:20;17.70;98.90
11043;DHT22;5574;48.786;10.120;2022-09-16T15:32:48;17.70;99.00
11043;DHT22;5574;48.786;10.120;2022-09-16T15:35:21;17.50;98.00
11043;DHT22;5574;48.786;10.120;2022-09-16T15:37:48;17.50;98.90
11043;DHT22;5574;48.786;10.120;2022-09-16T15:40:22;17.40;98.60
11043;DHT22;5574;48.786;10.120;2022-09-16T15:43:04;17.20;98.60
11043;DHT22;5574;48.786;10.120;2022-09-16T15:45:37;17.00;99.30
11043;DHT22;5574;48.786;10.120;2022-09-16T15:48:06;16.90;98.80
11043;DHT22;5574;48.786;10.120;2022-09-16T15:50:39;16.70;99.40
11043;DHT22;5574;48.786;10.120;2022-09-16T15:53:11;16.60;99.70
11043;DHT22;5574;48.786;10.120;2022-09-16T15:55:42;16.50;99.60
11043;DHT22;5574;48.786;10.120;2022-09-16T15:58:14;16.50;99.90
11043;DHT22;5574;48.786;10.120;2022-09-16T16:00:58;16.40;99.90
11043;DHT22;5574;48.786;10.120;2022-09-16T16:03:26;16.30;99.10